Terminal Aerodrome Forecast
Issued by NWS

Home | Current Version | Previous Version | Text Only | Print | Product List | Glossary Off
Versions: 1 2 3 4 5 6 7 8 9 10 11 12 13 14 15 16 17 18 19 20 21 22 23 24 25 26 27 28 29 30 31 32 33 34 35 36 37 38 39 40

000
FTUS43 KLOT 231400 AAA
TAFORD
TAF AMD
KORD 231414Z 2314/2418 18011KT 6SM -SHRA BR SCT015 OVC025
     FM231600 15012G18KT 6SM BR VCSH OVC015
     FM232100 13012KT 2SM RA BR OVC007
     FM240300 15010KT 2SM RA BR OVC004
     FM240600 20008KT 1 1/2SM -RA BR OVC004
     FM241500 24015G22KT 3SM -RASN BR SCT007 OVC015=

USA.gov is the U.S. government's official web portal to all federal, state and local government web resources and services.